Latest Weather Observations for Coober Pedy Airport

IDS60801

Issued at 4:11 pm CST Sunday 11 April 2021 (issued every 10 minutes, with the page automatically refreshed every 10 minutes)

About weather observations | Map of weather stations | Latest weather observations for SA | Other Formats
Station Details ID: 016090 Name: COOBER PEDY AIRPORT Lat: -29.03 Lon: 134.72 Height: 225.0 m
Data from the previous 72 hours. | See also: Recent months at Coober Pedy Airport
Date/Time
CST
Temp
°C
App
Temp
°C
Dew
Point
°C
Rel
Hum
%
Delta-T
°C
Wind Press
QNH
hPa
Press
MSL
hPa
Rain since
9am
mm
Dir  Spd
km/h
Gust
km/h
Spd
kts
Gust
kts
11/04:00pm 21.5 16.5 3.7 31 8.6 E 19 30 10 16 1021.5 1020.8 0.0
11/03:30pm 21.8 17.7 4.4 32 8.6 SE 15 28 8 15 1021.3 1020.6 0.0
11/03:00pm 21.8 17.3 4.4 32 8.6 ESE 17 28 9 15 1021.7 1021.0 0.0
11/02:30pm 21.5 16.6 4.1 32 8.5 SE 19 30 10 16 1022.3 1021.5 0.0
11/02:00pm 21.1 16.7 4.6 34 8.1 ESE 17 30 9 16 1022.5 1021.7 0.0
11/01:30pm 20.3 15.5 4.4 35 7.7 ESE 19 30 10 16 1023.0 1022.2 0.0
11/01:00pm 20.9 17.0 5.3 36 7.8 SSE 15 26 8 14 1023.8 1023.1 0.0
11/12:30pm 20.0 15.1 5.3 38 7.3 ESE 20 35 11 19 1024.3 1023.6 0.0
11/12:00pm 19.2 14.4 4.9 39 7.0 SE 19 30 10 16 1024.7 1024.0 0.0
11/11:30am 19.1 14.9 5.6 41 6.7 SE 17 26 9 14 1024.8 1024.1 0.0
11/11:00am 18.4 13.8 5.6 43 6.3 ESE 19 26 10 14 1025.0 1024.3 0.0
11/10:30am 18.0 12.5 5.9 45 6.0 SE 24 33 13 18 1025.3 1024.6 0.0
11/10:00am 17.6 12.0 5.5 45 5.9 SE 24 35 13 19 1025.6 1024.9 0.0
11/09:30am 16.6 11.1 5.9 49 5.2 SE 24 33 13 18 1025.5 1024.8 0.0
11/09:00am 15.8 10.1 6.8 55 4.4 SE 26 33 14 18 1025.5 1024.8 0.0
11/08:30am 14.7 9.4 7.0 60 3.8 SE 24 33 13 18 1025.2 1024.5 0.0
11/08:00am 13.8 8.9 6.7 62 3.5 SSE 22 28 12 15 1024.7 1024.0 0.0
11/07:30am 12.8 8.5 6.8 67 2.9 SSE 19 24 10 13 1024.3 1023.6 0.0
11/07:00am 12.1 7.6 7.0 71 2.5 SSE 20 22 11 12 1023.9 1023.2 0.0
11/06:30am 12.2 8.0 7.3 72 2.4 SSE 19 22 10 12 1023.6 1022.8 0.0
11/06:00am 12.5 8.4 7.8 73 2.3 SSE 19 24 10 13 1023.1 1022.3 0.0
11/05:30am 12.8 8.7 7.9 72 2.4 SSE 19 24 10 13 1023.0 1022.2 0.0
11/05:00am 13.2 8.9 7.9 70 2.6 S 20 24 11 13 1022.8 1022.0 0.0
11/04:30am 13.6 9.1 8.4 71 2.6 S 22 26 12 14 1022.5 1021.7 0.0
11/04:00am 13.8 10.0 9.0 73 2.5 S 19 24 10 13 1022.3 1021.5 0.0
11/03:30am 14.4 9.6 9.0 70 2.8 S 24 30 13 16 1022.1 1021.3 0.0
11/03:00am 14.5 10.3 9.7 73 2.5 S 22 28 12 15 1021.9 1021.2 0.0
11/02:30am 14.9 10.3 9.7 71 2.7 S 24 30 13 16 1021.7 1021.0 0.0
11/02:00am 15.2 10.6 9.6 69 2.9 S 24 30 13 16 1021.9 1021.2 0.0
11/01:30am 15.8 11.2 9.7 67 3.2 S 24 32 13 17 1022.1 1021.3 0.0
11/01:00am 16.0 11.3 9.4 65 3.5 S 24 32 13 17 1021.9 1021.2 0.0
11/12:30am 16.3 11.4 8.5 60 4.0 S 24 32 13 17 1021.9 1021.2 0.0
11/12:00am 17.0 11.8 8.7 58 4.3 S 26 33 14 18 1021.8 1021.1 0.0
 
Date/Time
CST
Temp
°C
App
Temp
°C
Dew
Point
°C
Rel
Hum
%
Delta-T
°C
Wind Press
QNH
hPa
Press
MSL
hPa
Rain since
9am
mm
Dir  Spd
km/h
Gust
km/h
Spd
kts
Gust
kts
10/11:30pm 17.3 11.9 8.2 55 4.7 SSW 26 37 14 20 1021.8 1021.1 0.0
10/11:00pm 17.6 13.6 8.2 54 4.9 SSW 19 26 10 14 1021.7 1021.0 0.0
10/10:30pm 17.5 14.2 8.1 54 4.8 SSW 15 19 8 10 1021.6 1020.9 0.0
10/10:00pm 18.0 14.4 8.3 53 5.0 S 17 20 9 11 1021.4 1020.7 0.0
10/09:30pm 18.5 14.5 8.2 51 5.3 SSW 19 22 10 12 1021.2 1020.5 0.0
10/09:00pm 18.9 14.8 8.6 51 5.4 S 20 24 11 13 1021.0 1020.3 0.0
10/08:30pm 19.6 14.0 8.6 49 5.8 S 28 33 15 18 1020.5 1019.8 0.0
10/08:00pm 20.0 14.2 8.0 46 6.3 S 28 35 15 19 1020.1 1019.4 0.0
10/07:30pm 20.5 14.3 7.8 44 6.6 S 30 35 16 19 1019.7 1018.9 0.0
10/07:00pm 21.1 16.2 7.0 40 7.3 SSW 22 30 12 16 1019.3 1018.5 0.0
10/06:30pm 21.6 15.9 6.7 38 7.7 S 26 32 14 17 1018.9 1018.1 0.0
10/06:00pm 21.9 15.7 6.2 36 8.0 SSW 28 33 15 18 1018.6 1017.8 0.0
10/05:30pm 22.3 15.7 6.1 35 8.3 S 30 35 16 19 1018.4 1017.6 0.0
10/05:00pm 22.4 15.7 5.8 34 8.4 SSW 30 43 16 23 1018.2 1017.4 0.0
10/04:30pm 23.1 17.2 6.0 33 8.8 SSW 26 41 14 22 1018.1 1017.3 0.0
10/04:00pm 23.4 16.4 5.8 32 9.0 SSW 32 46 17 25 1018.1 1017.3 0.0
10/03:30pm 22.4 15.4 5.8 34 8.4 S 32 43 17 23 1018.1 1017.3 0.0
10/03:00pm 22.9 16.7 6.2 34 8.6 S 28 39 15 21 1018.2 1017.4 0.0
10/02:30pm 22.7 17.0 6.5 35 8.4 SSW 26 46 14 25 1018.3 1017.5 0.0
10/02:26pm 22.0 15.7 5.8 35 8.2 SSW 28 46 15 25 1018.4 1017.6 0.0
10/02:00pm 22.3 15.7 6.1 35 8.3 S 30 43 16 23 1018.5 1017.7 0.0
10/01:30pm 21.2 14.3 6.3 38 7.6 S 32 46 17 25 1018.9 1018.1 0.0
10/01:24pm 21.7 15.6 6.8 38 7.7 S 28 46 15 25 1018.9 1018.1 0.0
10/01:00pm 21.0 14.2 6.9 40 7.3 SSW 32 43 17 23 1019.2 1018.4 0.0
10/12:30pm 21.2 14.7 6.7 39 7.4 SSW 30 41 16 22 1019.6 1018.8 0.0
10/12:00pm 19.7 13.2 6.4 42 6.7 S 30 46 16 25 1019.9 1019.2 0.0
10/11:36am 19.8 13.7 6.5 42 6.7 S 28 46 15 25 1020.1 1019.4 0.0
10/11:30am 20.5 13.8 7.5 43 6.7 S 32 44 17 24 1020.2 1019.5 0.0
10/11:00am 19.3 12.4 7.4 46 6.1 S 33 46 18 25 1020.3 1019.6 0.0
10/10:30am 18.5 11.5 6.7 46 5.9 S 33 44 18 24 1020.4 1019.7 0.0
10/10:00am 18.0 10.3 7.1 49 5.5 S 37 46 20 25 1020.6 1019.9 0.0
10/09:30am 17.5 10.7 7.8 53 5.0 S 33 44 18 24 1020.7 1020.0 0.0
10/09:00am 16.5 8.7 8.2 58 4.2 S 39 46 21 25 1020.3 1019.6 0.0
10/08:30am 16.1 9.6 8.8 62 3.8 S 33 43 18 23 1020.1 1019.4 0.0
10/08:00am 14.8 7.9 8.7 67 3.1 S 35 44 19 24 1019.6 1018.8 0.0
10/07:30am 14.7 7.7 8.6 67 3.1 S 35 44 19 24 1019.0 1018.2 0.0
10/07:00am 14.4 8.4 8.6 68 3.0 S 30 41 16 22 1018.7 1017.9 0.0
10/06:30am 14.8 7.4 8.5 66 3.2 S 37 48 20 26 1018.2 1017.4 0.0
10/06:00am 15.2 7.4 8.2 63 3.6 S 39 50 21 27 1017.7 1016.9 0.0
10/05:30am 15.5 9.1 8.5 63 3.6 S 32 41 17 22 1017.1 1016.4 0.0
10/05:00am 15.8 8.5 8.8 63 3.6 S 37 46 20 25 1016.5 1015.8 0.0
10/04:30am 16.3 10.8 10.6 69 3.1 SSW 30 37 16 20 1016.8 1016.1 0.0
10/04:00am 16.4 11.2 11.6 73 2.6 S 30 41 16 22 1015.8 1015.0 0.0
10/03:30am 16.5 11.3 12.7 78 2.1 SSW 32 37 17 20 1015.9 1015.1 0.0
10/03:00am 17.2 12.0 13.5 79 2.1 SSW 33 43 18 23 1016.4 1015.7 0.0
10/02:30am 17.5 12.6 13.6 78 2.2 SSW 32 39 17 21 1015.6 1014.8 0.0
10/02:00am 18.1 12.8 13.2 73 2.8 SSW 33 43 18 23 1015.6 1014.8 0.0
10/01:30am 18.3 13.2 13.8 75 2.6 SSW 33 41 18 22 1015.5 1014.7 0.0
10/01:00am 18.7 13.8 13.8 73 2.8 S 32 41 17 22 1015.1 1014.3 0.0
10/12:30am 19.4 13.7 13.1 67 3.6 S 35 43 19 23 1015.1 1014.3 0.0
10/12:00am 20.1 13.5 12.6 62 4.3 S 39 50 21 27 1015.1 1014.3 0.0
 
Date/Time
CST
Temp
°C
App
Temp
°C
Dew
Point
°C
Rel
Hum
%
Delta-T
°C
Wind Press
QNH
hPa
Press
MSL
hPa
Rain since
9am
mm
Dir  Spd
km/h
Gust
km/h
Spd
kts
Gust
kts
09/11:30pm 21.4 14.8 12.5 57 5.1 SSW 39 50 21 27 1014.9 1014.1 0.0
09/11:00pm 22.4 16.7 12.9 55 5.5 S 35 44 19 24 1014.9 1014.1 0.0
09/10:30pm 23.3 17.6 12.9 52 6.0 S 35 44 19 24 1015.0 1014.2 0.0
09/10:00pm 24.3 18.2 12.9 49 6.6 S 37 44 20 24 1014.6 1013.8 0.0
09/09:30pm 24.8 17.5 12.7 47 7.0 S 43 56 23 30 1014.4 1013.6 0.0
09/09:00pm 25.0 18.5 12.9 47 7.1 S 39 46 21 25 1013.9 1013.1 0.0
09/08:30pm 25.2 18.3 12.8 46 7.2 S 41 46 22 25 1013.7 1012.9 0.0
09/08:00pm 25.4 18.3 12.3 44 7.6 S 41 50 22 27 1013.3 1012.5 0.0
09/07:30pm 26.0 18.6 12.5 43 7.9 SSE 43 54 23 29 1012.5 1011.8 0.0
09/07:00pm 26.9 19.8 12.2 40 8.6 SSE 41 54 22 29 1011.7 1010.9 0.0
09/06:30pm 27.9 20.3 10.6 34 9.9 S 41 54 22 29 1011.2 1010.4 0.0
09/06:00pm 30.0 22.7 7.2 24 12.4 S 35 43 19 23 1010.6 1009.8 0.0
09/05:30pm 31.1 24.3 7.5 23 13.0 SSW 33 39 18 21 1010.2 1009.4 0.0
09/05:00pm 32.0 25.2 7.0 21 13.7 SSW 32 37 17 20 1009.8 1009.0 0.0
09/04:30pm 33.0 27.2 6.3 19 14.6 SSW 26 35 14 19 1009.7 1008.9 0.0
09/04:00pm 33.4 26.6 5.0 17 15.2 SW 30 37 16 20 1009.6 1008.8 0.0
09/03:30pm 33.4 27.3 5.0 17 15.2 SSW 26 35 14 19 1009.6 1008.8 0.0
09/03:00pm 33.9 28.5 4.6 16 15.7 SW 22 32 12 17 1009.6 1008.8 0.0
09/02:30pm 34.3 28.4 4.0 15 16.1 WSW 24 35 13 19 1009.8 1009.0 0.0
09/02:00pm 34.3 28.2 3.0 14 16.3 WSW 24 35 13 19 1009.9 1009.1 0.0
09/01:30pm 33.7 27.9 2.5 14 16.1 WSW 22 33 12 18 1010.3 1009.5 0.0
09/01:00pm 34.1 28.2 1.8 13 16.5 WSW 22 35 12 19 1010.6 1009.8 0.0
09/12:30pm 34.4 28.7 3.1 14 16.4 W 22 33 12 18 1010.9 1010.1 0.0
09/12:00pm 33.8 27.7 2.6 14 16.1 W 24 30 13 16 1011.3 1010.5 0.0
09/11:30am 32.8 26.5 1.8 14 15.7 WNW 24 30 13 16 1011.6 1010.8 0.0
09/11:00am 32.0 26.0 1.2 14 15.4 WNW 22 28 12 15 1012.0 1011.2 0.0
09/10:30am 30.7 25.1 1.1 15 14.6 W 20 24 11 13 1012.3 1011.6 0.0
09/10:00am 29.6 24.1 2.0 17 13.7 W 20 28 11 15 1012.6 1011.9 0.0
09/09:30am 28.8 23.5 2.1 18 13.3 WNW 19 24 10 13 1012.4 1011.7 0.0
09/09:00am 27.0 22.1 2.1 20 12.2 WNW 17 22 9 12 1012.3 1011.6 0.0
09/08:30am 24.9 20.3 1.7 22 11.1 W 15 19 8 10 1012.3 1011.6 0.0
09/08:00am 22.1 19.1 1.7 26 9.6 SW 7 9 4 5 1011.9 1011.1 0.0
09/07:30am 19.6 16.2 1.6 30 8.3 SW 9 13 5 7 1011.6 1010.8 0.0
09/07:00am 18.4 14.5 1.0 31 7.8 WSW 11 13 6 7 1011.3 1010.5 0.0
09/06:30am 18.8 14.4 0.4 29 8.2 NW 13 17 7 9 1011.0 1010.2 0.0
09/06:00am 19.8 15.1 0.8 28 8.6 NNW 15 17 8 9 1010.6 1009.8 0.0
09/05:30am 20.3 15.1 0.2 26 9.1 N 17 19 9 10 1010.2 1009.4 0.0
09/05:00am 20.2 15.0 0.1 26 9.0 N 17 19 9 10 1010.1 1009.3 0.0
09/04:30am 21.0 15.8 0.2 25 9.4 N 17 19 9 10 1010.0 1009.2 0.0
09/04:00am 20.8 15.1 -0.5 24 9.5 N 19 19 10 10 1009.9 1009.1 0.0
09/03:30am 21.3 15.6 -0.6 23 9.8 N 19 20 10 11 1009.9 1009.1 0.0
09/03:00am 20.6 15.2 -1.2 23 9.6 NNE 17 17 9 9 1010.0 1009.2 0.0
09/02:30am 20.8 15.4 -1.1 23 9.7 NNE 17 17 9 9 1010.1 1009.3 0.0
09/02:00am 21.5 16.1 -1.1 22 10.0 NNE 17 17 9 9 1010.3 1009.5 0.0
09/01:30am 22.0 16.2 -1.3 21 10.3 NNE 19 20 10 11 1010.4 1009.6 0.0
09/01:00am 21.9 16.1 -1.4 21 10.3 N 19 20 10 11 1010.6 1009.8 0.0
09/12:30am 22.0 16.2 -1.3 21 10.3 NNE 19 20 10 11 1010.9 1010.1 0.0
09/12:00am 22.7 16.9 -1.4 20 10.7 NNE 19 20 10 11 1011.1 1010.3 0.0
 
Date/Time
CST
Temp
°C
App
Temp
°C
Dew
Point
°C
Rel
Hum
%
Delta-T
°C
Wind Press
QNH
hPa
Press
MSL
hPa
Rain since
9am
mm
Dir  Spd
km/h
Gust
km/h
Spd
kts
Gust
kts
08/11:30pm 22.7 17.3 -1.4 20 10.7 NNE 17 19 9 10 1011.3 1010.5 0.0
08/11:00pm 23.0 17.6 -1.1 20 10.8 NNE 17 19 9 10 1011.5 1010.7 0.0
08/10:30pm 23.8 18.4 -1.2 19 11.3 NNE 17 19 9 10 1011.7 1010.9 0.0
08/10:00pm 24.0 18.6 -1.0 19 11.3 NE 17 17 9 9 1011.7 1010.9 0.0
08/09:30pm 25.5 19.7 -1.3 17 12.2 NE 19 20 10 11 1011.3 1010.5 0.0
08/09:00pm 25.7 20.3 -1.2 17 12.3 NE 17 17 9 9 1011.3 1010.5 0.0
08/08:30pm 26.0 20.7 -0.9 17 12.4 ENE 17 20 9 11 1011.1 1010.3 0.0
08/08:00pm 26.5 21.4 -2.2 15 13.0 ENE 15 19 8 10 1010.8 1010.0 0.0
08/07:30pm 28.0 23.7 -2.0 14 13.8 NE 11 11 6 6 1010.5 1009.7 0.0
08/07:00pm 29.0 26.8 -1.2 14 14.2 CALM 0 0 0 0 1010.2 1009.4 0.0
08/06:30pm 30.2 28.0 -1.2 13 14.9 CALM 0 0 0 0 1010.0 1009.2 0.0
08/06:00pm 32.1 28.7 -2.0 11 16.2 NE 6 7 3 4 1009.7 1008.9 0.0
08/05:30pm 33.0 29.5 -1.4 11 16.6 NW 7 19 4 10 1009.6 1008.8 0.0
08/05:00pm 33.3 30.4 -1.1 11 16.7 NE 4 13 2 7 1009.5 1008.7 0.0
08/04:30pm 34.0 30.2 -0.6 11 17.0 NW 9 19 5 10 1009.6 1008.8 0.0

Other formats

Comma delimited format used in spreadsheet applications
http://www.bom.gov.au/fwo/IDS60801/IDS60801.95458.axf

JavaScript Object Notation format (JSON) in row-major order
http://www.bom.gov.au/fwo/IDS60801/IDS60801.95458.json

Data quality

Most of these data are generated automatically and are frequently updated. Quality checks on data are not normally performed. It is possible for incorrect values to appear. Refer to information at About Latest Weather Observations and please check the disclaimer before using these data.